Latest Weather Observations for Scherger

IDQ60801

Issued at 6:02 pm EST Sunday 14 February 2016 (issued every 30 minutes, with the page automatically refreshed every 10 minutes)

About weather observations | Map of weather stations | Latest weather observations for QLD | Other Formats
Station Details ID: 027075 Name: SCHERGER RAAF Lat: -12.62 Lon: 142.09 Height: 39.34 m
Data from the previous 72 hours. | See also: Recent months at Scherger
Date/Time
EST
Temp
°C
App
Temp
°C
Dew
Point
Rel
Hum
%
Delta-T
°C
Wind Press
QNH
hPa
Press
MSL
hPa
Rain
since 9 am
mm
Dir
 
Spd
km/h
Gust
km/h
Spd
kts
Gust
kts
14/06:00pm 32.7 36.9 20.9 49 7.9 CALM 0 0 0 0 1006.2 1005.9 0.4
14/05:30pm 33.2 37.6 21.4 50 8.0 CALM 0 7 0 4 1005.8 1005.5 0.4
14/05:00pm 33.8 39.4 23.5 55 7.2 CALM 0 0 0 0 1005.5 1005.2 0.4
14/04:30pm 33.5 37.6 22.3 52 7.7 S 4 9 2 5 1005.3 1005.0 0.4
14/04:00pm 32.9 36.3 21.7 51 7.6 E 6 9 3 5 1005.4 1005.1 0.4
14/03:30pm 32.8 36.9 22.9 56 6.8 ESE 6 11 3 6 1005.6 1005.3 0.2
14/03:00pm 33.0 36.3 21.8 51 7.6 ENE 7 11 4 6 1006.1 1005.8 0.2
14/02:30pm 32.7 36.0 22.5 55 7.0 NNE 9 15 5 8 1006.3 1006.0 0.2
14/02:00pm 32.6 36.0 22.7 56 6.8 ESE 9 15 5 8 1006.6 1006.3 0.2
14/01:30pm 33.3 37.4 23.9 58 6.6 ENE 9 15 5 8 1007.0 1006.7 0.2
14/01:00pm 32.1 35.6 22.8 58 6.4 E 9 15 5 8 1007.4 1007.1 0.2
14/12:30pm 31.9 35.5 23.7 62 5.7 E 11 19 6 10 1008.0 1007.7 0.2
14/12:00pm 31.7 34.7 22.7 59 6.2 ESE 11 17 6 9 1008.6 1008.3 0.2
14/11:30am 31.5 36.0 23.9 64 5.3 ENE 7 11 4 6 1009.2 1008.9 0.2
14/11:00am 30.7 34.5 22.8 62 5.4 ENE 7 13 4 7 1009.4 1009.1 0.0
14/10:30am 30.3 34.7 23.5 67 4.7 ENE 6 15 3 8 1009.5 1009.2 0.0
14/10:00am 29.8 34.3 24.0 71 4.0 NE 7 17 4 9 1009.6 1009.3 0.0
14/09:30am 28.9 33.7 24.5 77 3.1 NE 7 11 4 6 1009.6 1009.3 0.0
14/09:00am 28.6 33.6 24.8 80 2.7 ESE 7 11 4 6 1009.6 1009.3 1.0
14/08:30am 27.7 32.5 24.5 83 2.2 E 7 11 4 6 1009.3 1009.0 0.8
14/08:00am 26.5 32.1 24.2 87 1.6 ESE 2 7 1 4 1009.3 1009.0 0.8
14/07:30am 25.9 30.7 24.1 90 1.2 SE 6 7 3 4 1008.9 1008.6 0.8
14/07:00am 25.7 30.3 24.1 91 1.1 SSE 7 11 4 6 1008.6 1008.3 0.8
14/06:30am 25.5 29.7 24.1 92 1.0 S 9 13 5 7 1008.1 1007.8 0.8
14/06:00am 25.6 30.7 24.0 91 1.1 SSW 4 7 2 4 1007.6 1007.3 0.8
14/05:30am 25.5 30.0 23.9 91 1.1 S 7 9 4 5 1007.2 1006.9 0.8
14/05:00am 25.5 30.0 23.7 90 1.2 S 6 9 3 5 1006.9 1006.6 0.6
14/04:30am 25.5 29.8 23.6 89 1.3 SSE 7 9 4 5 1006.8 1006.5 0.6
14/04:00am 25.7 31.3 23.6 88 1.4 CALM 0 0 0 0 1006.9 1006.6 0.6
14/03:30am 25.8 31.5 23.7 88 1.4 CALM 0 0 0 0 1007.2 1006.9 0.6
14/03:00am 25.8 31.5 23.8 89 1.4 CALM 0 0 0 0 1007.3 1007.0 0.6
14/02:30am 25.8 31.5 23.8 89 1.4 CALM 0 0 0 0 1007.5 1007.2 0.6
14/02:00am 25.8 31.5 23.7 88 1.4 CALM 0 0 0 0 1007.8 1007.5 0.6
14/01:30am 25.8 31.5 23.7 88 1.4 CALM 0 0 0 0 1007.9 1007.6 0.4
14/01:00am 25.8 31.5 23.8 89 1.4 CALM 0 0 0 0 1008.2 1007.9 0.4
14/12:30am 26.0 31.7 23.7 87 1.6 CALM 0 0 0 0 1008.3 1008.0 0.4
14/12:00am 26.2 31.9 23.7 86 1.7 CALM 0 0 0 0 1008.6 1008.3 0.4
 
Date/Time
EST
Temp
°C
App
Temp
°C
Dew
Point
Rel
Hum
%
Delta-T
°C
Wind Press
QNH
hPa
Press
MSL
hPa
Rain
since 9 am
mm
Dir
 
Spd
km/h
Gust
km/h
Spd
kts
Gust
kts
13/11:30pm 26.3 31.7 23.2 83 2.1 CALM 0 0 0 0 1008.8 1008.5 0.4
13/11:00pm 26.3 31.7 23.2 83 2.1 CALM 0 0 0 0 1009.0 1008.7 0.4
13/10:30pm 26.4 30.9 22.9 81 2.4 NNE 4 7 2 4 1008.8 1008.5 0.4
13/10:00pm 26.9 32.0 23.4 81 2.4 NNE 2 7 1 4 1008.5 1008.2 0.4
13/09:30pm 27.5 31.7 23.1 77 3.0 NE 6 11 3 6 1008.1 1007.8 0.4
13/09:00pm 27.7 32.9 23.5 78 2.9 NE 2 13 1 7 1007.8 1007.5 0.4
13/08:30pm 27.8 32.4 23.8 79 2.8 NE 6 7 3 4 1007.5 1007.2 0.2
13/08:00pm 27.8 33.8 24.2 81 2.5 CALM 0 0 0 0 1007.3 1007.0 0.2
13/07:30pm 28.5 34.3 23.9 76 3.2 CALM 0 0 0 0 1007.1 1006.8 0.2
13/07:00pm 28.8 34.6 23.9 75 3.4 CALM 0 0 0 0 1006.7 1006.4 0.2
13/06:30pm 29.2 34.8 23.6 72 3.9 CALM 0 6 0 3 1006.5 1006.2 0.2
13/06:00pm 29.7 33.8 23.2 68 4.5 NE 7 11 4 6 1006.1 1005.8 0.2
13/05:30pm 30.1 33.9 23.5 67 4.6 NE 9 17 5 9 1005.7 1005.4 0.2
13/05:00pm 30.0 34.5 24.6 73 3.8 NE 9 17 5 9 1005.5 1005.2 0.2
13/04:30pm 30.3 34.5 23.2 65 4.9 N 6 7 3 4 1005.3 1005.0 0.2
13/04:00pm 30.4 35.0 23.8 68 4.6 NNW 6 9 3 5 1005.4 1005.1 0.2
13/03:30pm 27.9 29.9 22.2 71 3.8 NNE 15 22 8 12 1005.6 1005.3 0.2
13/03:00pm 29.9 35.2 24.3 72 3.9 SW 4 9 2 5 1005.6 1005.3 0.2
13/02:30pm 29.5 32.5 23.4 69 4.2 SSE 13 20 7 11 1005.8 1005.5 0.2
13/02:00pm 32.5 35.0 21.7 53 7.3 E 11 17 6 9 1005.9 1005.6 0.2
13/01:30pm 32.0 34.9 22.4 57 6.6 ESE 11 19 6 10 1006.1 1005.8 0.0
13/01:00pm 32.4 35.4 23.4 59 6.2 ENE 13 22 7 12 1006.6 1006.3 0.0
13/12:30pm 31.9 34.9 24.0 63 5.5 ENE 15 22 8 12 1007.2 1006.9 0.0
13/12:00pm 31.9 35.6 24.5 65 5.2 ENE 13 20 7 11 1007.6 1007.3 0.0
13/11:30am 32.2 37.4 26.3 71 4.2 NE 11 20 6 11 1008.0 1007.7 0.0
13/11:00am 30.4 34.3 24.8 72 3.9 E 13 20 7 11 1008.4 1008.1 0.0
13/10:30am 30.5 34.8 24.9 72 3.9 E 11 20 6 11 1008.7 1008.4 0.0
13/10:00am 29.6 35.0 25.4 78 3.0 NE 7 15 4 8 1009.1 1008.8 0.0
13/09:30am 28.0 33.1 25.0 84 2.1 E 7 13 4 7 1009.1 1008.8 0.0
13/09:00am 26.9 32.1 25.1 90 1.3 E 7 9 4 5 1009.1 1008.8 0.6
13/08:30am 26.0 30.4 24.4 91 1.1 SSE 9 11 5 6 1009.1 1008.8 0.6
13/08:00am 25.5 30.1 24.1 92 1.0 SE 7 9 4 5 1008.9 1008.6 0.4
13/07:30am 25.4 31.5 24.4 94 0.7 CALM 0 0 0 0 1008.7 1008.4 0.4
13/07:00am 25.0 30.8 24.0 94 0.7 CALM 0 0 0 0 1008.1 1007.8 0.4
13/06:30am 24.8 30.5 23.8 94 0.7 CALM 0 6 0 3 1007.6 1007.3 0.4
13/06:00am 24.6 30.2 23.6 94 0.7 CALM 0 0 0 0 1007.1 1006.8 0.4
13/05:30am 24.7 30.4 23.7 94 0.7 CALM 0 0 0 0 1006.9 1006.6 0.4
13/05:00am 24.7 29.2 23.7 94 0.7 SE 6 7 3 4 1006.5 1006.2 0.4
13/04:30am 24.7 30.4 23.7 94 0.7 CALM 0 0 0 0 1006.2 1005.9 0.4
13/04:00am 24.7 30.4 23.7 94 0.7 CALM 0 0 0 0 1006.2 1005.9 0.4
13/03:30am 24.6 29.5 23.6 94 0.7 S 4 9 2 5 1006.1 1005.8 0.4
13/03:00am 24.5 30.1 23.5 94 0.7 CALM 0 0 0 0 1005.9 1005.6 0.4
13/02:30am 24.6 30.2 23.6 94 0.7 CALM 0 6 0 3 1005.8 1005.5 0.4
13/02:00am 24.7 30.4 23.7 94 0.7 CALM 0 0 0 0 1006.3 1006.0 0.4
13/01:30am 24.7 30.4 23.7 94 0.7 CALM 0 0 0 0 1007.0 1006.7 0.4
13/01:00am 24.8 30.5 23.8 94 0.7 CALM 0 0 0 0 1007.3 1007.0 0.4
13/12:30am 24.7 30.0 23.7 94 0.7 ENE 2 7 1 4 1007.4 1007.1 0.4
13/12:00am 24.7 30.4 23.8 95 0.6 CALM 0 6 0 3 1007.6 1007.3 0.2
 
Date/Time
EST
Temp
°C
App
Temp
°C
Dew
Point
Rel
Hum
%
Delta-T
°C
Wind Press
QNH
hPa
Press
MSL
hPa
Rain
since 9 am
mm
Dir
 
Spd
km/h
Gust
km/h
Spd
kts
Gust
kts
12/11:30pm 24.6 29.1 23.7 95 0.6 ESE 6 7 3 4 1007.8 1007.5 0.2
12/11:00pm 24.6 29.5 23.7 95 0.6 SE 4 7 2 4 1008.1 1007.8 0.2
12/10:30pm 24.7 30.4 23.7 94 0.7 CALM 0 0 0 0 1008.1 1007.8 0.2
12/10:00pm 24.7 30.1 23.8 95 0.6 NE 2 7 1 4 1007.7 1007.4 0.2
12/09:30pm 24.6 29.1 23.7 95 0.6 ENE 6 9 3 5 1007.8 1007.5 0.2
12/09:00pm 24.6 29.1 23.6 94 0.7 E 6 9 3 5 1008.3 1008.0 0.2
12/08:30pm 24.6 29.1 23.7 95 0.6 E 6 7 3 4 1008.4 1008.1 0.2
12/08:00pm 24.6 29.1 23.7 95 0.6 E 6 11 3 6 1007.8 1007.5 0.2
12/07:30pm 24.6 29.1 23.6 94 0.7 E 6 11 3 6 1007.8 1007.5 0.2
12/07:00pm 24.7 29.0 23.7 94 0.7 E 7 13 4 7 1007.7 1007.4 0.2
12/06:30pm 24.8 29.2 23.8 94 0.7 ESE 7 11 4 6 1007.4 1007.1 0.2
12/06:00pm 25.0 29.7 24.0 94 0.7 E 6 9 3 5 1006.9 1006.6 0.2
12/05:30pm 24.9 29.0 23.9 94 0.7 E 9 13 5 7 1006.4 1006.1 0.2
12/05:00pm 24.9 29.0 23.9 94 0.7 ENE 9 13 5 7 1006.3 1006.0 0.2
12/04:30pm 24.7 29.0 23.7 94 0.7 NE 7 13 4 7 1005.8 1005.5 0.0
12/04:00pm 24.5 27.2 22.9 91 1.1 NE 13 24 7 13 1005.7 1005.4 0.0
12/03:30pm 25.8 30.6 24.4 92 1.0 NNE 7 15 4 8 1005.8 1005.5 0.0
12/03:00pm 26.4 30.4 24.4 89 1.4 NE 11 20 6 11 1005.9 1005.6 0.0
12/02:30pm 27.3 29.9 24.0 82 2.3 NNW 17 30 9 16 1005.4 1005.1 0.0
12/02:27pm 27.9 30.6 24.1 80 2.6 NNW 17 28 9 15 1005.4 1005.1 0.0
12/02:00pm 32.9 37.8 24.6 61 5.9 NW 7 11 4 6 1005.3 1005.0 0.0
12/01:30pm 33.1 38.4 23.7 57 6.5 W 2 6 1 3 1005.5 1005.2 0.0
12/01:00pm 34.2 39.2 24.5 57 6.9 E 6 13 3 7 1006.0 1005.7 0.0
12/12:30pm 33.0 38.3 25.3 64 5.5 NE 7 11 4 6 1006.8 1006.5 0.0
12/12:00pm 32.0 37.1 24.1 63 5.5 NNE 4 15 2 8 1007.3 1007.0 0.0
12/11:30am 31.9 36.5 24.7 65 5.1 ESE 9 15 5 8 1007.7 1007.4 0.0
12/11:00am 31.4 36.3 25.3 70 4.3 NE 9 15 5 8 1008.2 1007.9 0.0
12/10:30am 31.2 35.8 25.3 71 4.2 ENE 11 20 6 11 1008.5 1008.2 0.0
12/10:00am 30.0 34.3 24.9 74 3.6 ENE 11 19 6 10 1008.9 1008.6 0.0
12/09:30am 29.4 33.6 24.7 76 3.3 E 11 17 6 9 1009.1 1008.8 0.0
12/09:00am 29.1 34.0 25.3 80 2.7 E 9 17 5 9 1009.0 1008.7 0.8
12/08:30am 27.3 33.1 25.1 88 1.5 ESE 4 7 2 4 1009.0 1008.7 0.6
12/08:00am 26.8 32.0 24.8 89 1.4 ESE 6 9 3 5 1008.7 1008.4 0.6
12/07:30am 26.3 32.2 24.7 91 1.1 E 2 7 1 4 1008.5 1008.2 0.6
12/07:00am 25.4 30.2 24.5 95 0.6 NE 7 11 4 6 1008.1 1007.8 0.6
12/06:30am 25.2 30.5 24.3 95 0.6 ENE 4 7 2 4 1007.5 1007.2 0.6
12/06:00am 25.2 30.5 24.3 95 0.6 ENE 4 7 2 4 1007.3 1007.0 0.6
12/05:30am 25.1 31.0 24.1 94 0.7 CALM 0 0 0 0 1007.2 1006.9 0.6
12/05:00am 25.2 31.2 24.2 94 0.7 CALM 0 0 0 0 1006.9 1006.6 0.6
12/04:30am 25.3 31.3 24.3 94 0.7 CALM 0 0 0 0 1006.9 1006.6 0.6
12/04:00am 25.2 31.2 24.2 94 0.7 CALM 0 0 0 0 1006.6 1006.3 0.6
12/03:30am 25.3 31.2 24.1 93 0.8 CALM 0 0 0 0 1006.7 1006.4 0.6
12/03:00am 25.4 31.5 24.4 94 0.7 CALM 0 0 0 0 1007.0 1006.7 0.6
12/02:30am 25.6 31.8 24.6 94 0.7 CALM 0 0 0 0 1007.2 1006.9 0.6
12/02:00am 25.6 31.4 24.6 94 0.7 ENE 2 6 1 3 1007.4 1007.1 0.6
12/01:30am 25.6 31.8 24.6 94 0.7 CALM 0 2 0 1 1007.5 1007.2 0.6
12/01:00am 25.6 31.7 24.4 93 0.8 CALM 0 0 0 0 1007.8 1007.5 0.6
12/12:30am 25.8 31.8 24.2 91 1.1 CALM 0 0 0 0 1008.1 1007.8 0.4
12/12:00am 25.9 31.9 24.3 91 1.1 CALM 0 0 0 0 1008.3 1008.0 0.4
 
Date/Time
EST
Temp
°C
App
Temp
°C
Dew
Point
Rel
Hum
%
Delta-T
°C
Wind Press
QNH
hPa
Press
MSL
hPa
Rain
since 9 am
mm
Dir
 
Spd
km/h
Gust
km/h
Spd
kts
Gust
kts
11/11:30pm 26.0 32.0 24.2 90 1.2 CALM 0 0 0 0 1008.7 1008.4 0.4
11/11:00pm 26.2 31.0 24.1 88 1.4 ENE 6 9 3 5 1008.9 1008.6 0.4
11/10:30pm 26.9 31.7 24.2 85 1.9 NE 6 9 3 5 1008.8 1008.5 0.4
11/10:00pm 27.1 31.9 24.4 85 1.9 NNE 7 9 4 5 1008.7 1008.4 0.4
11/09:30pm 27.1 32.0 24.6 86 1.7 ENE 7 11 4 6 1008.2 1007.9 0.4
11/09:00pm 27.1 33.0 24.7 87 1.7 NE 2 7 1 4 1007.8 1007.5 0.4
11/08:30pm 27.0 33.2 24.6 87 1.7 CALM 0 0 0 0 1007.5 1007.2 0.4
11/08:00pm 27.3 33.5 24.6 85 1.9 CALM 0 0 0 0 1007.1 1006.8 0.4
11/07:30pm 27.7 33.8 24.5 83 2.2 CALM 0 2 0 1 1006.5 1006.2 0.4
11/07:00pm 28.0 32.9 24.4 81 2.5 NE 6 9 3 5 1006.1 1005.8 0.4
11/06:30pm 28.3 33.2 24.3 79 2.8 ENE 6 7 3 4 1005.7 1005.4 0.4

Other Formats:

Comma delimited format used in spreadsheet applications
http://www.bom.gov.au/fwo/IDQ60801/IDQ60801.94171.axf

JavaScript Object Notation format (JSON) in row-major order
http://www.bom.gov.au/fwo/IDQ60801/IDQ60801.94171.json